Time;durP1;ratioP1;P1;durP2;ratioP2;P2;SDS_P1;SDS_P2;PMS_P1;PMS_P2;Temp;Humidity;BMP_temperature;BMP_pressure;BME280_temperature;BME280_humidity;BME280_pressure;Samples;Min_cycle;Max_cycle;Signal;HPM_P1;HPM_P2
2023/12/19 00:00:07;;;;;;;174.50;6.80;;;;;;;19.77;61.20;100129.91;7310031;19;129284;-36
2023/12/19 00:02:33;;;;;;;60.08;3.10;;;;;;;19.74;61.11;100124.94;7310989;19;132035;-40
2023/12/19 00:04:58;;;;;;;76.40;3.53;;;;;;;19.75;60.98;100124.81;7310407;19;129416;-40
2023/12/19 00:07:24;;;;;;;116.78;4.97;;;;;;;19.75;61.24;100134.44;7309008;19;130229;-37
2023/12/19 00:09:49;;;;;;;135.23;5.45;;;;;;;19.76;61.47;100123.03;7310651;19;129602;-40
2023/12/19 00:12:15;;;;;;;79.10;4.07;;;;;;;19.77;61.63;100109.03;7310901;19;133289;-37
2023/12/19 00:14:40;;;;;;;174.48;7.72;;;;;;;19.74;61.79;100104.06;7310071;19;130527;-40
2023/12/19 00:17:06;;;;;;;43.58;2.20;;;;;;;19.78;61.22;100100.28;7310631;19;129151;-35
2023/12/19 00:19:31;;;;;;;162.02;6.45;;;;;;;19.78;61.19;100095.91;7309599;19;129233;-37
2023/12/19 00:21:57;;;;;;;57.45;2.95;;;;;;;19.80;61.45;100099.22;7308311;19;130191;-37
2023/12/19 00:24:22;;;;;;;102.07;4.60;;;;;;;19.69;60.68;100069.66;7311102;19;130850;-38
2023/12/19 00:26:47;;;;;;;138.52;5.28;;;;;;;19.88;60.80;100086.44;7310315;19;129422;-36
2023/12/19 00:29:13;;;;;;;102.03;4.47;;;;;;;19.93;60.75;100083.47;7310804;19;130042;-37
2023/12/19 00:31:38;;;;;;;109.50;4.53;;;;;;;19.94;60.28;100085.97;7309374;19;130163;-39
2023/12/19 00:34:04;;;;;;;61.33;3.10;;;;;;;19.99;60.80;100098.66;7307978;19;130132;-37
2023/12/19 00:36:29;;;;;;;98.38;3.85;;;;;;;20.01;60.33;100112.41;7309766;19;128897;-36
2023/12/19 00:38:54;;;;;;;68.88;3.40;;;;;;;20.02;60.34;100103.63;7311245;19;129751;-39
2023/12/19 00:41:20;;;;;;;88.10;4.03;;;;;;;20.03;59.96;100097.47;7309484;19;131473;-39
2023/12/19 00:43:45;;;;;;;40.70;2.33;;;;;;;19.87;60.30;100069.09;7311064;19;130492;-38
2023/12/19 00:46:11;;;;;;;136.80;5.30;;;;;;;20.00;60.01;100079.47;7311171;19;129569;-38
2023/12/19 00:48:37;;;;;;;83.15;3.85;;;;;;;20.03;59.61;100089.66;7309677;19;130087;-37
2023/12/19 00:51:09;;;;;;;61.60;2.90;;;;;;;20.03;60.21;100095.69;7309110;19;130173;-38
2023/12/19 00:53:34;;;;;;;64.80;2.97;;;;;;;20.02;59.60;100088.81;7307651;19;131045;-40
2023/12/19 00:56:00;;;;;;;141.55;5.82;;;;;;;20.04;59.75;100092.16;7309799;19;129877;-39
2023/12/19 00:58:25;;;;;;;171.63;7.20;;;;;;;20.00;59.01;100090.69;7308397;19;129220;-40
2023/12/19 01:00:50;;;;;;;48.30;2.33;;;;;;;20.00;59.37;100100.34;7308292;19;129203;-40
2023/12/19 01:03:16;;;;;;;58.63;2.95;;;;;;;20.04;58.71;100102.59;7307873;19;129774;-39
2023/12/19 01:05:43;;;;;;;140.15;5.57;;;;;;;20.01;59.23;100095.00;7309269;19;128722;-36
2023/12/19 01:08:08;;;;;;;94.50;4.00;;;;;;;19.85;58.82;100073.59;7309693;19;129150;-35
2023/12/19 01:10:34;;;;;;;40.60;2.17;;;;;;;19.90;60.26;100099.38;7307148;19;130209;-39
2023/12/19 01:12:59;;;;;;;56.47;2.85;;;;;;;19.79;61.21;100100.16;7307622;19;130315;-40
2023/12/19 01:15:24;;;;;;;191.02;7.57;;;;;;;19.77;61.24;100103.81;7309211;19;129862;-34
2023/12/19 01:17:50;;;;;;;42.05;2.42;;;;;;;19.71;61.74;100106.91;7310053;19;129177;-38
2023/12/19 01:20:15;;;;;;;80.90;3.72;;;;;;;19.62;60.77;100105.00;7305658;19;130290;-39
2023/12/19 01:22:41;;;;;;;83.55;3.63;;;;;;;19.63;61.08;100117.94;7308678;19;130514;-40
2023/12/19 01:25:06;;;;;;;103.43;4.18;;;;;;;19.58;61.44;100109.63;7309285;19;128920;-37
2023/12/19 01:27:32;;;;;;;150.73;6.07;;;;;;;19.53;61.37;100113.50;7306574;19;129594;-37
2023/12/19 01:29:57;;;;;;;21.30;1.65;;;;;;;19.49;61.89;100105.06;7304935;19;130205;-40
2023/12/19 01:32:23;;;;;;;181.82;7.18;;;;;;;19.47;61.96;100106.13;7308757;19;131144;-35
2023/12/19 01:34:48;;;;;;;91.40;4.10;;;;;;;19.32;61.76;100082.84;7315655;19;128914;-37
2023/12/19 01:37:14;;;;;;;54.83;2.60;;;;;;;19.42;62.46;100102.09;7316549;19;129354;-42
2023/12/19 01:39:39;;;;;;;83.43;3.55;;;;;;;19.27;62.65;100091.94;7313072;19;130371;-39
2023/12/19 01:42:04;;;;;;;140.52;5.40;;;;;;;19.37;61.94;100114.63;7315459;19;130291;-37
2023/12/19 01:44:30;;;;;;;129.85;5.38;;;;;;;19.35;62.88;100100.84;7315440;19;130647;-36
2023/12/19 01:46:55;;;;;;;89.07;4.03;;;;;;;19.34;62.88;100099.22;7314802;19;129561;-40
2023/12/19 01:49:21;;;;;;;56.03;2.58;;;;;;;19.32;62.10;100095.88;7313689;19;130069;-38
2023/12/19 01:51:47;;;;;;;149.65;5.95;;;;;;;19.32;63.39;100087.25;7311047;19;131240;-39
2023/12/19 01:54:12;;;;;;;52.25;2.35;;;;;;;19.31;62.98;100091.63;7314488;19;129714;-40
2023/12/19 01:56:39;;;;;;;77.50;3.42;;;;;;;19.18;62.95;100056.94;7313754;19;129025;-40
2023/12/19 01:59:05;;;;;;;52.10;2.57;;;;;;;19.33;62.52;100075.88;7313389;19;130931;-40
2023/12/19 02:01:33;;;;;;;186.55;6.80;;;;;;;19.29;62.81;100067.44;7312041;19;130382;-38
2023/12/19 02:03:59;;;;;;;51.60;2.63;;;;;;;19.13;63.10;100051.25;7315993;19;129535;-38
2023/12/19 02:06:25;;;;;;;81.65;3.85;;;;;;;19.28;62.76;100102.25;7314720;19;129209;-39
2023/12/19 02:08:51;;;;;;;59.53;2.60;;;;;;;19.27;63.24;100087.53;7312927;19;129604;-40
2023/12/19 02:11:16;;;;;;;116.50;4.50;;;;;;;19.26;63.36;100093.69;7313240;19;130263;-37
2023/12/19 02:13:43;;;;;;;55.10;2.72;;;;;;;19.25;63.16;100096.44;7314585;19;129263;-37
2023/12/19 02:16:08;;;;;;;58.57;2.73;;;;;;;19.25;63.00;100099.84;7315199;19;129412;-39
2023/12/19 02:18:34;;;;;;;122.97;4.95;;;;;;;19.26;62.56;100109.34;7313185;19;130910;-39
2023/12/19 02:20:59;;;;;;;165.27;6.30;;;;;;;19.26;63.21;100103.28;7313260;19;129630;-37
2023/12/19 02:23:24;;;;;;;108.50;4.57;;;;;;;19.25;62.74;100097.22;7315606;19;129220;-39
2023/12/19 02:25:51;;;;;;;69.88;3.10;;;;;;;19.25;62.89;100107.66;7315204;19;128980;-35
2023/12/19 02:28:17;;;;;;;239.77;9.65;;;;;;;19.25;63.10;100101.63;7311988;19;129549;-38
2023/12/19 02:30:43;;;;;;;128.77;5.07;;;;;;;19.25;63.28;100107.66;7314332;19;130605;-39
2023/12/19 02:33:08;;;;;;;100.25;3.92;;;;;;;19.25;63.10;100102.44;7314503;19;129590;-39
2023/12/19 02:35:34;;;;;;;64.68;3.08;;;;;;;19.27;62.91;100104.97;7314450;19;129170;-38
2023/12/19 02:37:59;;;;;;;121.88;5.05;;;;;;;19.27;62.79;100103.19;7314060;19;130068;-40
2023/12/19 02:40:25;;;;;;;115.00;4.68;;;;;;;19.26;63.14;100093.69;7314303;19;129430;-37
2023/12/19 02:42:50;;;;;;;48.67;2.53;;;;;;;19.23;62.96;100083.50;7315414;19;129153;-39
2023/12/19 02:45:16;;;;;;;39.00;2.05;;;;;;;19.25;63.06;100086.00;7314395;19;129239;-37
2023/12/19 02:47:42;;;;;;;117.45;4.93;;;;;;;19.24;62.67;100069.53;7314210;19;129375;-35
2023/12/19 02:50:07;;;;;;;96.07;3.93;;;;;;;19.24;62.95;100073.88;7314066;19;130179;-37
2023/12/19 02:52:33;;;;;;;90.55;3.80;;;;;;;19.24;62.99;100072.13;7314013;19;129154;-40
2023/12/19 02:54:58;;;;;;;70.72;3.13;;;;;;;19.22;63.28;100066.19;7313279;19;129601;-37
2023/12/19 02:57:24;;;;;;;163.45;6.30;;;;;;;19.24;62.85;100053.88;7313453;19;131101;-38
2023/12/19 02:59:49;;;;;;;67.60;2.88;;;;;;;19.24;62.71;100048.66;7314061;19;130319;-36
2023/12/19 03:02:14;;;;;;;74.72;3.15;;;;;;;19.23;63.04;100057.44;7313163;19;130724;-39
2023/12/19 03:04:40;;;;;;;52.78;2.33;;;;;;;19.24;63.28;100051.28;7312512;19;129193;-39
2023/12/19 03:07:06;;;;;;;125.10;4.78;;;;;;;19.24;62.63;100047.81;7311528;19;130798;-40
2023/12/19 03:09:31;;;;;;;91.40;4.03;;;;;;;19.23;63.32;100052.22;7312280;19;132075;-39
2023/12/19 03:12:03;;;;;;;50.95;2.58;;;;;;;19.25;63.54;100054.72;7310731;19;129320;-37
2023/12/19 03:14:32;;;;;;;114.10;4.72;;;;;;;19.24;62.89;100064.31;7309440;19;129172;-36
2023/12/19 03:16:58;;;;;;;116.20;4.47;;;;;;;19.20;62.71;100057.69;7312578;19;130935;-38
2023/12/19 03:19:23;;;;;;;85.57;3.60;;;;;;;19.07;63.45;100036.03;7312201;19;129646;-39
2023/12/19 03:21:49;;;;;;;56.95;2.45;;;;;;;19.23;62.60;100062.66;7311135;19;129372;-38
2023/12/19 03:24:14;;;;;;;80.32;3.40;;;;;;;19.05;63.13;100030.13;7312275;19;129416;-40
2023/12/19 03:26:39;;;;;;;144.48;5.35;;;;;;;19.21;62.71;100058.47;7312311;19;131290;-37
2023/12/19 03:29:05;;;;;;;74.22;3.50;;;;;;;19.23;62.78;100065.25;7310346;19;130234;-37
2023/12/19 03:31:30;;;;;;;104.65;4.38;;;;;;;19.22;62.92;100060.97;7310039;19;128963;-39
2023/12/19 03:33:56;;;;;;;75.43;3.13;;;;;;;19.22;63.78;100070.59;7310966;19;129418;-40
2023/12/19 03:36:21;;;;;;;118.45;4.45;;;;;;;19.22;63.54;100063.59;7312878;19;130202;-38
2023/12/19 03:38:49;;;;;;;50.45;2.28;;;;;;;19.23;63.19;100060.06;7310927;19;130264;-40
2023/12/19 03:41:14;;;;;;;79.30;3.38;;;;;;;19.23;62.75;100056.59;7311031;19;129183;-38
2023/12/19 03:43:40;;;;;;;157.55;6.20;;;;;;;19.21;63.73;100033.25;7311918;19;129639;-40
2023/12/19 03:46:07;;;;;;;76.13;3.13;;;;;;;19.22;63.62;100018.47;7309604;19;130133;-37
2023/12/19 03:48:34;;;;;;;97.28;4.10;;;;;;;19.19;62.69;100014.28;7310951;19;131132;-44
2023/12/19 03:50:59;;;;;;;;;;;;;;;19.21;63.37;100035.88;7312506;19;130678;-38
2023/12/19 03:53:25;;;;;;;114.07;4.55;;;;;;;19.21;63.18;100028.03;7311254;19;128932;-39
2023/12/19 03:55:50;;;;;;;175.75;7.13;;;;;;;19.22;62.91;100024.47;7310455;19;130269;-37
2023/12/19 03:58:16;;;;;;;141.43;5.85;;;;;;;19.22;63.46;100028.88;7310498;19;129814;-40
2023/12/19 04:00:41;;;;;;;81.53;3.30;;;;;;;19.22;62.97;100023.66;7308785;19;130359;-37
2023/12/19 04:03:06;;;;;;;85.07;3.47;;;;;;;19.22;63.23;100021.88;7311292;19;130869;-40
2023/12/19 04:05:32;;;;;;;118.45;4.78;;;;;;;19.22;63.46;100006.25;7312246;19;130146;-38
2023/12/19 04:07:57;;;;;;;92.82;3.92;;;;;;;19.21;63.03;99996.78;7311380;19;131183;-39
2023/12/19 04:10:22;;;;;;;19.50;1.10;;;;;;;19.22;63.30;99981.97;7309533;19;129557;-39
2023/12/19 04:12:48;;;;;;;153.82;5.60;;;;;;;19.21;63.63;99988.94;7311033;19;129755;-40
2023/12/19 04:15:13;;;;;;;52.55;2.42;;;;;;;19.22;62.66;99984.56;7311682;19;129716;-37
2023/12/19 04:17:39;;;;;;;116.13;4.82;;;;;;;19.23;62.90;99984.47;7310592;19;131032;-40
2023/12/19 04:20:04;;;;;;;103.43;4.07;;;;;;;19.24;62.96;99988.72;7309371;19;129300;-39
2023/12/19 04:22:31;;;;;;;184.02;7.20;;;;;;;19.08;63.28;99990.81;7310727;19;128975;-35
2023/12/19 04:24:57;;;;;;;67.70;2.95;;;;;;;19.23;62.60;100013.13;7310618;19;130188;-40
2023/12/19 04:27:22;;;;;;;42.55;2.17;;;;;;;19.22;62.95;99998.41;7310489;19;129775;-37
2023/12/19 04:29:47;;;;;;;57.72;2.40;;;;;;;19.24;62.70;99990.47;7308040;19;130297;-40
2023/12/19 04:32:13;;;;;;;112.93;4.30;;;;;;;19.23;62.77;99984.47;7310431;19;129226;-37
2023/12/19 04:34:39;;;;;;;82.32;3.38;;;;;;;19.22;63.30;99981.97;7308501;19;130265;-38
2023/12/19 04:37:04;;;;;;;72.13;3.10;;;;;;;19.20;63.31;99987.31;7310155;19;129943;-36
2023/12/19 04:39:30;;;;;;;95.32;4.03;;;;;;;19.04;63.20;99965.91;7307253;19;128817;-39
2023/12/19 04:41:55;;;;;;;86.00;3.65;;;;;;;19.34;62.42;99988.88;7307912;19;129614;-37
2023/12/19 04:44:22;;;;;;;52.90;2.35;;;;;;;19.50;61.53;99960.72;7310298;19;130138;-37
2023/12/19 04:46:47;;;;;;;53.30;2.22;;;;;;;20.08;60.51;99977.91;7309510;19;130378;-40
2023/12/19 04:49:12;;;;;;;133.52;5.28;;;;;;;20.54;58.75;99976.75;7309434;19;129405;-35
2023/12/19 04:51:38;;;;;;;161.90;6.18;;;;;;;21.06;57.09;99965.50;7306819;19;128899;-39
2023/12/19 04:54:05;;;;;;;63.58;2.92;;;;;;;21.46;56.39;99966.44;7308124;19;130462;-36
2023/12/19 04:56:31;;;;;;;100.82;3.78;;;;;;;22.08;54.14;99962.88;7305954;19;130499;-36
2023/12/19 04:58:56;;;;;;;114.05;4.38;;;;;;;22.46;53.08;99962.97;7309546;19;129273;-40
2023/12/19 05:01:21;;;;;;;127.07;5.10;;;;;;;22.82;52.68;99968.38;7306085;19;129155;-37
2023/12/19 05:03:47;;;;;;;29.00;1.58;;;;;;;23.09;50.98;99951.91;7307796;19;130524;-36
2023/12/19 05:06:17;;;;;;;61.05;2.70;;;;;;;23.51;50.85;99969.00;7310713;19;130195;-39
2023/12/19 05:08:44;;;;;;;135.65;5.13;;;;;;;23.67;49.68;99973.66;7314695;19;129219;-38
2023/12/19 05:11:10;;;;;;;82.45;3.30;;;;;;;23.86;49.79;99963.06;7316003;19;129197;-39
2023/12/19 05:13:35;;;;;;;82.78;3.38;;;;;;;23.99;49.09;99963.56;7312832;19;129362;-37
2023/12/19 05:16:16;;;;;;;71.18;2.80;;;;;;;24.01;48.99;99977.38;7314992;19;129383;-40
2023/12/19 05:18:43;;;;;;;118.75;4.60;;;;;;;24.09;48.96;99980.09;7313145;19;129167;-40
2023/12/19 05:21:09;;;;;;;169.32;6.40;;;;;;;24.12;48.51;99980.66;7313143;19;129792;-37
2023/12/19 05:23:36;;;;;;;127.63;5.07;;;;;;;24.04;48.96;99972.66;7314548;19;131128;-40
2023/12/19 05:26:05;;;;;;;22.02;1.20;;;;;;;23.98;48.65;99959.31;7313195;19;129182;-40
2023/12/19 05:28:31;;;;;;;56.28;2.35;;;;;;;23.90;49.52;99954.72;7313677;19;130040;-39
2023/12/19 05:30:57;;;;;;;128.90;4.73;;;;;;;23.78;49.81;99953.28;7313751;19;128898;-41
2023/12/19 05:33:33;;;;;;;89.18;3.58;;;;;;;23.56;50.48;99955.44;7313645;19;130223;-38
2023/12/19 05:35:58;;;;;;;58.63;2.58;;;;;;;23.39;50.82;99951.75;7313232;19;130930;-40
2023/12/19 05:38:24;;;;;;;124.07;5.38;;;;;;;23.24;51.30;99950.50;7314298;19;129805;-39
2023/12/19 05:40:51;;;;;;;108.78;4.03;;;;;;;23.06;51.37;99958.28;7313671;19;129385;-40
2023/12/19 05:43:17;;;;;;;109.03;4.15;;;;;;;22.88;52.13;99961.75;7315786;19;130029;-39
2023/12/19 05:45:42;;;;;;;105.68;4.20;;;;;;;22.69;52.68;99959.94;7312966;19;130261;-39
2023/12/19 05:48:08;;;;;;;93.45;3.78;;;;;;;22.54;52.98;99950.88;7314070;19;130477;-37
2023/12/19 05:50:34;;;;;;;145.93;5.65;;;;;;;22.36;52.82;99972.59;7312025;19;128866;-40
2023/12/19 05:53:00;;;;;;;61.53;2.43;;;;;;;22.20;53.61;99961.78;7313831;19;129464;-40
2023/12/19 05:55:25;;;;;;;71.43;2.80;;;;;;;22.05;54.25;99968.38;7313872;19;130081;-39
2023/12/19 05:57:51;;;;;;;57.00;2.47;;;;;;;21.76;54.84;99957.78;7313727;19;128934;-38
2023/12/19 06:00:17;;;;;;;122.03;4.50;;;;;;;21.74;55.28;99991.94;7312429;19;129655;-41
2023/12/19 06:02:43;;;;;;;;;;;;;;;21.58;55.61;99983.72;7315855;19;130294;-37
2023/12/19 06:05:09;;;;;;;86.85;3.38;;;;;;;21.46;56.14;99987.38;7311776;19;131176;-37
2023/12/19 06:07:36;;;;;;;133.38;5.18;;;;;;;21.33;55.80;99981.53;7313564;19;129518;-39
2023/12/19 06:10:03;;;;;;;128.35;4.72;;;;;;;21.24;56.69;99976.22;7309802;19;130197;-36
2023/12/19 06:12:30;;;;;;;55.60;2.50;;;;;;;21.13;56.88;99974.50;7313780;19;131492;-35
2023/12/19 06:14:55;;;;;;;91.40;3.72;;;;;;;20.98;57.34;99973.16;7308183;19;131174;-40
2023/12/19 06:17:21;;;;;;;76.30;3.13;;;;;;;20.93;57.29;99977.91;7310344;19;129893;-40
2023/12/19 06:19:46;;;;;;;204.45;7.57;;;;;;;20.83;57.33;99977.00;7311558;19;132093;-35
2023/12/19 06:22:12;;;;;;;36.17;1.65;;;;;;;20.77;57.61;99977.50;7310258;19;130080;-38
2023/12/19 06:24:37;;;;;;;183.70;6.90;;;;;;;20.66;57.74;99973.13;7312616;19;130395;-38
2023/12/19 06:27:02;;;;;;;91.43;3.80;;;;;;;20.60;58.54;99970.19;7313830;19;129808;-39
2023/12/19 06:29:28;;;;;;;97.10;3.78;;;;;;;20.43;58.21;99948.06;7313814;19;129122;-38
2023/12/19 06:31:53;;;;;;;95.00;3.65;;;;;;;20.47;59.01;99964.31;7311418;19;130244;-39
2023/12/19 06:34:18;;;;;;;84.40;3.17;;;;;;;20.42;59.24;99961.22;7314089;19;129661;-40
2023/12/19 06:36:44;;;;;;;154.10;6.03;;;;;;;20.34;59.14;99971.47;7314791;19;129420;-39
2023/12/19 06:39:10;;;;;;;141.43;5.18;;;;;;;20.35;59.35;99965.28;7313222;19;129078;-37
2023/12/19 06:41:36;;;;;;;68.93;2.75;;;;;;;20.23;59.68;99961.06;7313244;19;130162;-37
2023/12/19 06:44:01;;;;;;;108.93;4.25;;;;;;;20.23;59.20;99961.88;7313949;19;130993;-37
2023/12/19 06:46:27;;;;;;;182.80;6.70;;;;;;;20.19;59.87;99954.41;7314326;19;129544;-40
2023/12/19 06:48:52;;;;;;;78.65;3.08;;;;;;;20.17;59.94;99951.09;7314368;19;129120;-38
2023/12/19 06:51:27;;;;;;;54.80;2.27;;;;;;;20.13;60.42;99949.66;7311869;19;130149;-39
2023/12/19 06:53:57;;;;;;;87.30;3.50;;;;;;;20.10;59.93;99960.31;7312023;19;131053;-39
2023/12/19 06:56:26;;;;;;;81.95;3.20;;;;;;;20.09;60.58;99961.28;7313632;19;128917;-40
2023/12/19 06:58:52;;;;;;;137.98;5.28;;;;;;;20.04;60.56;99955.59;7312277;19;129184;-38
2023/12/19 07:01:17;;;;;;;111.57;4.38;;;;;;;20.04;60.51;99956.44;7311858;19;130112;-39
2023/12/19 07:03:43;;;;;;;101.90;4.25;;;;;;;20.04;60.02;99959.03;7313597;19;131173;-38
2023/12/19 07:06:12;;;;;;;75.20;3.03;;;;;;;20.01;60.16;99958.44;7312530;19;129900;-41
2023/12/19 07:08:38;;;;;;;259.63;9.43;;;;;;;19.94;59.96;99942.44;7306909;19;130825;-37
2023/12/19 07:11:03;;;;;;;550.88;21.50;;;;;;;20.17;60.03;99961.53;7286281;19;131223;-37
2023/12/19 07:13:29;;;;;;;499.27;18.92;;;;;;;20.50;59.35;99954.44;7261703;19;131182;-38
2023/12/19 07:15:54;;;;;;;420.23;15.52;;;;;;;21.00;58.11;99947.72;7271105;19;132014;-36
2023/12/19 07:18:19;;;;;;;463.17;17.63;;;;;;;21.47;56.47;99947.16;7272010;19;129955;-37
2023/12/19 07:20:45;;;;;;;493.90;18.80;;;;;;;21.93;55.68;99939.66;7271969;19;130847;-37
2023/12/19 07:23:10;;;;;;;431.60;16.13;;;;;;;22.28;54.55;99906.97;7272137;19;130054;-37
2023/12/19 07:25:35;;;;;;;404.08;14.57;;;;;;;22.73;53.43;99934.28;7272090;19;129947;-35
2023/12/19 07:28:02;;;;;;;394.52;14.77;;;;;;;23.03;52.46;99934.97;7272723;19;131783;-38
2023/12/19 07:30:28;;;;;;;363.38;13.23;;;;;;;23.23;52.15;99936.59;7270505;19;131307;-37
2023/12/19 07:32:53;;;;;;;325.40;11.88;;;;;;;23.44;51.48;99925.91;7274325;19;130711;-41
2023/12/19 07:35:19;;;;;;;379.80;13.70;;;;;;;23.56;51.16;99927.38;7272864;19;129755;-35
2023/12/19 07:37:45;;;;;;;401.93;14.93;;;;;;;23.67;50.71;99921.94;7274329;19;130938;-37
2023/12/19 07:40:12;;;;;;;317.40;11.45;;;;;;;23.76;50.57;99915.84;7274516;19;132473;-35
2023/12/19 07:42:38;;;;;;;373.42;13.95;;;;;;;23.83;50.68;99911.63;7272225;19;132282;-36
2023/12/19 07:45:06;;;;;;;296.90;10.82;;;;;;;23.92;50.35;99899.44;7275015;19;130116;-34
2023/12/19 07:47:32;;;;;;;404.88;15.52;;;;;;;23.95;50.70;99893.88;7274496;19;130219;-36
2023/12/19 07:49:57;;;;;;;287.83;10.50;;;;;;;24.00;50.53;99886.41;7274236;19;131974;-38
2023/12/19 07:52:22;;;;;;;305.27;11.00;;;;;;;23.99;51.05;99875.09;7274748;19;131056;-37
2023/12/19 07:54:48;;;;;;;469.58;17.77;;;;;;;24.04;50.28;99867.59;7272979;19;131744;-37
2023/12/19 07:57:13;;;;;;;377.70;13.95;;;;;;;24.07;50.43;99869.94;7275134;19;131785;-34
2023/12/19 07:59:39;;;;;;;340.33;12.47;;;;;;;24.13;50.82;99861.44;7272655;19;131004;-34
2023/12/19 08:02:05;;;;;;;293.05;10.85;;;;;;;24.16;50.29;99858.50;7275261;19;130869;-36
2023/12/19 08:04:30;;;;;;;393.10;14.17;;;;;;;24.21;50.20;99864.16;7272833;19;131276;-37
2023/12/19 08:06:55;;;;;;;347.02;12.07;;;;;;;24.27;50.59;99866.19;7274997;19;131501;-37
2023/12/19 08:09:21;;;;;;;327.13;12.07;;;;;;;24.36;49.56;99857.38;7274761;19;133358;-36
2023/12/19 08:11:47;;;;;;;382.23;14.50;;;;;;;24.33;50.38;99855.06;7272578;19;132147;-37
2023/12/19 08:14:13;;;;;;;407.08;14.90;;;;;;;24.36;50.08;99852.13;7273546;19;131119;-35
2023/12/19 08:16:38;;;;;;;315.50;11.48;;;;;;;24.35;50.22;99847.03;7275195;19;131971;-36
2023/12/19 08:19:03;;;;;;;365.80;13.53;;;;;;;24.36;50.56;99849.50;7272338;19;131799;-36
2023/12/19 08:21:29;;;;;;;356.93;12.70;;;;;;;24.43;50.49;99847.94;7269607;19;132907;-39
2023/12/19 08:23:55;;;;;;;430.95;16.38;;;;;;;24.39;49.84;99830.81;7273547;19;131272;-37
2023/12/19 08:26:20;;;;;;;370.97;13.53;;;;;;;24.39;49.90;99822.91;7273176;19;130384;-37
2023/12/19 08:28:45;;;;;;;320.10;11.73;;;;;;;24.42;50.60;99824.44;7271901;19;132979;-39
2023/12/19 08:31:11;;;;;;;465.50;17.87;;;;;;;24.53;49.99;99823.38;7272515;19;131904;-40
2023/12/19 08:33:38;;;;;;;363.63;13.23;;;;;;;24.51;50.30;99831.38;7273071;19;130357;-35
2023/12/19 08:36:04;;;;;;;317.20;11.75;;;;;;;24.51;50.22;99817.44;7273289;19;129961;-36
2023/12/19 08:38:30;;;;;;;371.45;14.00;;;;;;;24.53;50.12;99813.66;7273533;19;130684;-35
2023/12/19 08:40:55;;;;;;;427.37;16.03;;;;;;;24.53;50.21;99815.50;7270888;19;130686;-35
2023/12/19 08:43:20;;;;;;;373.73;13.80;;;;;;;24.48;49.92;99796.72;7275074;19;131347;-37
2023/12/19 08:45:48;;;;;;;356.30;13.33;;;;;;;24.44;50.05;99789.13;7274168;19;130858;-35
2023/12/19 08:48:13;;;;;;;302.60;11.10;;;;;;;24.62;49.61;99804.88;7273154;19;133041;-34
2023/12/19 08:50:38;;;;;;;414.47;15.37;;;;;;;24.65;49.47;99804.56;7271589;19;130475;-37
2023/12/19 08:53:05;;;;;;;354.30;12.87;;;;;;;24.65;49.88;99806.34;7274082;19;131002;-34
2023/12/19 08:55:30;;;;;;;348.67;12.90;;;;;;;24.70;50.10;99802.31;7271042;19;130632;-34
2023/12/19 08:57:55;;;;;;;380.10;14.10;;;;;;;24.52;50.19;99777.03;7270303;19;130988;-38
2023/12/19 09:00:22;;;;;;;414.98;14.95;;;;;;;24.63;50.13;99795.16;7270967;19;131277;-34
2023/12/19 09:02:48;;;;;;;351.35;12.45;;;;;;;24.65;50.37;99798.47;7273675;19;129417;-34
2023/12/19 09:05:18;;;;;;;427.15;15.93;;;;;;;24.70;49.59;99785.72;7271944;19;131057;-34
2023/12/19 09:07:48;;;;;;;347.05;13.35;;;;;;;24.70;50.54;99788.34;7274502;19;130906;-34
2023/12/19 09:10:14;;;;;;;424.73;15.57;;;;;;;24.67;50.69;99796.50;7269387;19;131441;-35
2023/12/19 09:12:40;;;;;;;363.48;13.68;;;;;;;24.66;50.37;99794.88;7276239;19;131500;-35
2023/12/19 09:15:06;;;;;;;307.93;11.37;;;;;;;24.64;50.39;99800.28;7275139;19;130005;-36
2023/12/19 09:17:32;;;;;;;319.25;11.88;;;;;;;24.65;50.84;99798.47;7275590;19;130640;-37
2023/12/19 09:19:59;;;;;;;399.20;15.05;;;;;;;24.69;50.38;99797.22;7273487;19;131136;-40
2023/12/19 09:22:25;;;;;;;653.13;28.00;;;;;;;24.56;50.00;99776.53;7267173;19;131486;-36
2023/12/19 09:24:50;;;;;;;391.42;14.70;;;;;;;24.70;50.09;99806.75;7271611;19;129928;-37
2023/12/19 09:27:16;;;;;;;306.97;11.27;;;;;;;24.72;50.41;99794.28;7274609;19;131377;-39
2023/12/19 09:29:41;;;;;;;401.07;14.60;;;;;;;24.73;50.33;99788.03;7272553;19;130774;-39
2023/12/19 09:32:07;;;;;;;332.02;11.82;;;;;;;24.63;50.65;99768.88;7275683;19;131632;-37
2023/12/19 09:34:33;;;;;;;363.30;13.07;;;;;;;24.72;50.17;99783.75;7272132;19;130763;-37
2023/12/19 09:36:59;;;;;;;335.73;12.45;;;;;;;24.62;50.00;99772.50;7270748;19;131024;-34
2023/12/19 09:39:24;;;;;;;362.33;13.02;;;;;;;24.60;49.71;99779.69;7274350;19;132216;-36
2023/12/19 09:41:50;;;;;;;370.40;13.75;;;;;;;24.49;49.94;99778.16;7275158;19;130090;-36
2023/12/19 09:44:15;;;;;;;315.10;12.77;;;;;;;24.32;51.01;99771.13;7274614;19;130852;-38
2023/12/19 09:46:49;;;;;;;271.13;9.90;;;;;;;24.19;50.86;99773.31;7276131;19;130450;-38
2023/12/19 09:49:24;;;;;;;463.38;17.92;;;;;;;24.04;51.00;99772.22;7274661;19;130980;-34
2023/12/19 09:51:53;;;;;;;447.15;17.40;;;;;;;24.01;51.03;99768.09;7271413;19;132439;-34
2023/12/19 09:54:22;;;;;;;315.63;11.70;;;;;;;23.94;50.81;99761.75;7279151;19;130623;-36
2023/12/19 09:56:52;;;;;;;337.70;12.65;;;;;;;23.90;51.22;99749.09;7279829;19;130801;-36
2023/12/19 09:59:18;;;;;;;304.27;11.35;;;;;;;23.91;51.18;99751.56;7281638;19;131057;-34
2023/12/19 10:01:44;;;;;;;329.40;11.77;;;;;;;23.95;51.10;99752.91;7278627;19;130964;-34
2023/12/19 10:04:13;;;;;;;324.50;12.27;;;;;;;24.08;50.47;99742.84;7283389;19;131871;-36
2023/12/19 10:06:53;;;;;;;324.73;11.85;;;;;;;24.17;49.99;99747.22;7282369;19;130552;-36
2023/12/19 10:09:19;;;;;;;311.65;11.38;;;;;;;24.23;49.81;99736.09;7281480;19;132448;-37
2023/12/19 10:11:45;;;;;;;335.00;12.57;;;;;;;24.17;50.06;99704.34;7279407;19;130837;-36
2023/12/19 10:14:11;;;;;;;322.47;12.10;;;;;;;24.29;49.85;99724.97;7280839;19;130187;-35
2023/12/19 10:16:40;;;;;;;296.90;10.98;;;;;;;24.38;49.93;99721.41;7281820;19;130543;-36
2023/12/19 10:19:07;;;;;;;332.13;12.48;;;;;;;24.38;49.28;99716.16;7279796;19;130378;-38
2023/12/19 10:21:33;;;;;;;342.43;12.43;;;;;;;24.26;49.50;99687.69;7279066;19;131277;-37
2023/12/19 10:24:06;;;;;;;;;;;;;;;24.36;49.64;99710.22;7281462;19;131645;-36
2023/12/19 10:26:33;;;;;;;302.60;10.85;;;;;;;24.37;49.92;99690.88;7281936;19;131192;-36
2023/12/19 10:28:59;;;;;;;362.55;13.55;;;;;;;24.36;49.57;99694.47;7280939;19;131209;-37
2023/12/19 10:31:24;;;;;;;369.17;13.73;;;;;;;24.37;49.47;99688.25;7280050;19;131537;-35
2023/12/19 10:33:50;;;;;;;357.42;13.15;;;;;;;24.35;49.46;99690.19;7279942;19;129552;-38
2023/12/19 10:36:27;;;;;;;323.33;11.90;;;;;;;24.10;49.30;99674.41;7281400;19;130787;-38
2023/12/19 10:38:54;;;;;;;322.17;12.15;;;;;;;24.09;49.61;99685.91;7279740;19;130638;-38
2023/12/19 10:41:20;;;;;;;315.55;11.68;;;;;;;23.96;50.22;99686.28;7279126;19;131664;-37
2023/12/19 10:43:49;;;;;;;364.52;13.52;;;;;;;23.81;50.67;99682.56;7280464;19;130004;-37
2023/12/19 10:46:17;;;;;;;344.38;12.55;;;;;;;23.70;50.77;99680.13;7281628;19;131090;-36
2023/12/19 10:48:42;;;;;;;297.77;11.05;;;;;;;23.53;51.15;99678.38;7281829;19;130825;-38
2023/12/19 10:51:11;;;;;;;258.03;9.73;;;;;;;23.42;51.61;99673.31;7278784;19;130228;-36
2023/12/19 10:53:37;;;;;;;371.00;13.43;;;;;;;23.37;51.79;99669.50;7280302;19;131471;-37
2023/12/19 10:56:07;;;;;;;343.73;12.57;;;;;;;23.39;51.90;99663.13;7280444;19;129739;-37
2023/12/19 10:58:36;;;;;;;332.83;12.65;;;;;;;23.40;51.84;99656.91;7280487;19;130549;-37
2023/12/19 11:01:05;;;;;;;308.35;11.38;;;;;;;23.45;52.12;99669.59;7279327;19;130867;-37